Weather at Read Seaplane Base

Public forecast

Using degrees Fahrenheit for public forecast. Weather courtesy of forecast.io.

Closest aviation weather report (METAR) to Read Seaplane Base

Closest report is Luce County Airport, 16.4 nm (30.3 km) ENE. Retrieved 2021/07/31 23:35 UTC (12 minutes ago):

KERY 312335Z AUTO 33007KT 7SM SCT026 BKN038 OVC045 18/15 A2990 RMK AO2 T01840145

Closest aviation forecast (TAF) to Read Seaplane Base

Closest forecast is Pellston Regional Airport of Emmet County Airport, 55.0 nm (101.9 km) SE. Retrieved 2021/07/31 18:39 UTC (5 hours ago):

TAF KPLN 311735Z 3118/0118 27009G16KT P6SM VCTS SCT035CB BKN050 FM312100 27009KT P6SM BKN060 FM010300 31006KT P6SM VCSH SCT050 BKN090 FM010700 31006KT P6SM BKN020 FM011000 33007KT P6SM VCSH BKN016 FM011600 36009KT P6SM BKN022